createdAt,value
2023-05-30T00:00:59.223Z,7.2
2023-05-30T00:02:06.028Z,7.2
2023-05-30T00:03:13.419Z,7.2
2023-05-30T00:04:19.692Z,7.2
2023-05-30T00:05:26.819Z,7.1
2023-05-30T00:06:33.866Z,7.2
2023-05-30T00:07:41.039Z,7.2
2023-05-30T00:08:47.661Z,7.2
2023-05-30T00:09:54.711Z,7.2
2023-05-30T00:11:01.765Z,7.1
2023-05-30T00:12:09.012Z,7.1
2023-05-30T00:13:16.061Z,7.2
2023-05-30T00:14:22.587Z,7.2
2023-05-30T00:15:29.755Z,7.2
2023-05-30T00:16:36.875Z,7.2
2023-05-30T00:17:44.051Z,7.2
2023-05-30T00:18:50.981Z,7.1
2023-05-30T00:19:57.641Z,7.2
2023-05-30T00:21:04.714Z,7.2
2023-05-30T00:22:11.866Z,7.2
2023-05-30T00:23:19.068Z,7.2
2023-05-30T00:24:26.062Z,7.1
2023-05-30T00:26:39.732Z,7.1
2023-05-30T00:27:46.826Z,7.2
2023-05-30T00:28:53.990Z,7.2
2023-05-30T00:30:01.031Z,7.2
2023-05-30T00:31:07.682Z,7.2
2023-05-30T00:32:14.756Z,7.1
2023-05-30T00:33:22.010Z,7.2
2023-05-30T00:34:28.946Z,7.1
2023-05-30T00:35:36.037Z,7.2
2023-05-30T00:36:42.593Z,7.1
2023-05-30T00:37:49.725Z,7.2
2023-05-30T00:38:56.890Z,7.2
2023-05-30T00:40:03.946Z,7.2
2023-05-30T00:42:17.646Z,7.2
2023-05-30T00:43:24.761Z,7.2
2023-05-30T00:44:32.389Z,7.2
2023-05-30T00:45:38.960Z,7.2
2023-05-30T00:46:46.046Z,7.2
2023-05-30T00:47:52.694Z,7.3
2023-05-30T00:48:59.836Z,7.3
2023-05-30T00:50:06.913Z,7.3
2023-05-30T00:51:13.931Z,7.3
2023-05-30T00:52:21.045Z,7.3
2023-05-30T00:53:27.656Z,7.3
2023-05-30T00:54:34.771Z,7.4
2023-05-30T00:55:41.824Z,7.3
2023-05-30T00:56:48.999Z,7.3
2023-05-30T00:57:56.074Z,7.3
2023-05-30T00:59:02.631Z,7.4
2023-05-30T01:00:09.781Z,7.4
2023-05-30T01:01:16.970Z,7.4
2023-05-30T01:02:24.015Z,7.4
2023-05-30T01:03:31.194Z,7.4
2023-05-30T01:04:37.752Z,7.4
2023-05-30T01:05:44.783Z,7.4
2023-05-30T01:06:51.876Z,7.5
2023-05-30T01:07:59.035Z,7.5
2023-05-30T01:09:06.108Z,7.5
2023-05-30T01:10:12.664Z,7.5
2023-05-30T01:11:19.750Z,7.5
2023-05-30T01:12:26.900Z,7.6
2023-05-30T01:13:33.953Z,7.6
2023-05-30T01:14:41.109Z,7.6
2023-05-30T01:15:47.739Z,7.6
2023-05-30T01:16:54.800Z,7.6
2023-05-30T01:18:02.012Z,7.6
2023-05-30T01:19:09.141Z,7.6
2023-05-30T01:20:16.191Z,7.6
2023-05-30T01:21:22.651Z,7.5
2023-05-30T01:22:29.813Z,7.5
2023-05-30T01:23:36.896Z,7.5
2023-05-30T01:24:44.021Z,7.5
2023-05-30T01:25:51.128Z,7.5
2023-05-30T01:26:57.729Z,7.5
2023-05-30T01:28:04.848Z,7.5
2023-05-30T01:30:19.092Z,7.6
2023-05-30T01:31:26.151Z,7.6
2023-05-30T01:32:32.740Z,7.6
2023-05-30T01:33:39.961Z,7.6
2023-05-30T01:34:46.939Z,7.6
2023-05-30T01:35:54.023Z,7.6
2023-05-30T01:37:01.140Z,7.6
2023-05-30T01:38:07.710Z,7.6
2023-05-30T01:39:14.842Z,7.6
2023-05-30T01:40:21.938Z,7.6
2023-05-30T01:41:29.036Z,7.6
2023-05-30T01:42:35.660Z,7.6
2023-05-30T01:43:42.722Z,7.5
2023-05-30T01:44:49.819Z,7.6
2023-05-30T01:45:56.989Z,7.6
2023-05-30T01:47:04.042Z,7.5
2023-05-30T01:48:11.213Z,7.5
2023-05-30T01:49:17.760Z,7.5
2023-05-30T01:50:24.882Z,7.5
2023-05-30T01:51:31.913Z,7.5
2023-05-30T01:52:39.072Z,7.5
2023-05-30T01:53:45.618Z,7.6
2023-05-30T01:54:52.736Z,7.6
2023-05-30T01:55:59.850Z,7.6
2023-05-30T01:57:07.006Z,7.6
2023-05-30T01:58:14.068Z,7.7
2023-05-30T01:59:21.238Z,7.7
2023-05-30T02:00:27.797Z,7.7
2023-05-30T02:01:34.874Z,7.7
2023-05-30T02:02:42.020Z,7.7
2023-05-30T02:03:49.089Z,7.6
2023-05-30T02:04:55.821Z,7.7
2023-05-30T02:06:02.908Z,7.7
2023-05-30T02:07:09.881Z,7.7
2023-05-30T02:08:16.936Z,7.7
2023-05-30T02:10:30.697Z,7.7
2023-05-30T02:11:37.758Z,7.7
2023-05-30T02:12:44.862Z,7.8
2023-05-30T02:13:51.965Z,7.7
2023-05-30T02:14:59.120Z,7.8
2023-05-30T02:16:05.678Z,7.8
2023-05-30T02:17:12.762Z,7.8
2023-05-30T02:18:19.896Z,7.8
2023-05-30T02:19:27.005Z,7.8
2023-05-30T02:20:34.124Z,7.8
2023-05-30T02:21:40.697Z,7.8
2023-05-30T02:22:47.774Z,7.8
2023-05-30T02:23:54.955Z,7.8
2023-05-30T02:25:02.025Z,7.8
2023-05-30T02:26:09.114Z,7.9
2023-05-30T02:27:15.728Z,7.9
2023-05-30T02:28:22.753Z,7.9
2023-05-30T02:29:29.908Z,7.9
2023-05-30T02:30:37.042Z,7.9
2023-05-30T02:31:44.077Z,7.9
2023-05-30T02:33:57.832Z,7.9
2023-05-30T02:35:04.890Z,7.9
2023-05-30T02:36:14.102Z,7.9
2023-05-30T02:37:19.170Z,7.9
2023-05-30T02:38:25.718Z,7.9
2023-05-30T02:39:32.824Z,8
2023-05-30T02:40:39.954Z,7.9
2023-05-30T02:41:47.051Z,7.9
2023-05-30T02:42:54.092Z,7.9
2023-05-30T02:44:00.728Z,8
2023-05-30T02:45:07.880Z,8
2023-05-30T02:46:14.935Z,8
2023-05-30T02:47:22.025Z,8
2023-05-30T02:48:29.157Z,8.1
2023-05-30T02:49:35.775Z,8.1
2023-05-30T02:50:42.783Z,8.1
2023-05-30T02:51:50.428Z,8.1
2023-05-30T02:52:57.038Z,8.1
2023-05-30T02:54:04.111Z,8.2
2023-05-30T02:55:10.748Z,8.2
2023-05-30T02:56:17.866Z,8.3
2023-05-30T02:57:24.956Z,8.3
2023-05-30T02:58:32.090Z,8.3
2023-05-30T02:59:39.134Z,8.3
2023-05-30T03:00:45.715Z,8.3
2023-05-30T03:01:52.917Z,8.3
2023-05-30T03:02:59.990Z,8.4
2023-05-30T03:04:07.079Z,8.4
2023-05-30T03:05:13.645Z,8.4
2023-05-30T03:06:20.731Z,8.5
2023-05-30T03:07:27.919Z,8.5
2023-05-30T03:08:34.944Z,8.5
2023-05-30T03:09:42.026Z,8.5
2023-05-30T03:10:48.634Z,8.5
2023-05-30T03:11:55.743Z,8.5
2023-05-30T03:13:02.870Z,8.5
2023-05-30T03:14:10.020Z,8.5
2023-05-30T03:15:17.054Z,8.5
2023-05-30T03:16:23.738Z,8.5
2023-05-30T03:17:30.736Z,8.5
2023-05-30T03:18:37.907Z,8.5
2023-05-30T03:19:44.966Z,8.5
2023-05-30T03:20:52.102Z,8.6
2023-05-30T03:21:58.699Z,8.6
2023-05-30T03:23:05.831Z,8.6
2023-05-30T03:24:12.955Z,8.6
2023-05-30T03:25:19.965Z,8.6
2023-05-30T03:26:27.063Z,8.6
2023-05-30T03:27:33.646Z,8.6
2023-05-30T03:28:40.751Z,8.6
2023-05-30T03:29:47.924Z,8.6
2023-05-30T03:30:55.541Z,8.6
2023-05-30T03:32:02.186Z,8.7
2023-05-30T03:33:08.687Z,8.7
2023-05-30T03:34:15.925Z,8.7
2023-05-30T03:35:22.845Z,8.7
2023-05-30T03:38:43.693Z,8.8
2023-05-30T03:39:50.762Z,8.8
2023-05-30T03:40:58.142Z,8.8
2023-05-30T03:42:04.994Z,8.8
2023-05-30T03:43:12.058Z,8.8
2023-05-30T03:44:18.803Z,8.8
2023-05-30T03:45:25.809Z,8.8
2023-05-30T03:46:33.023Z,8.8
2023-05-30T03:47:40.022Z,8.8
2023-05-30T03:48:47.069Z,8.8
2023-05-30T03:49:54.912Z,8.8
2023-05-30T03:51:00.789Z,8.8
2023-05-30T03:52:07.893Z,8.8
2023-05-30T03:53:15.047Z,8.9
2023-05-30T03:54:22.079Z,8.9
2023-05-30T03:55:29.238Z,8.9
2023-05-30T03:56:35.792Z,8.9
2023-05-30T03:57:42.946Z,8.9
2023-05-30T03:58:50.080Z,8.9
2023-05-30T03:59:57.131Z,9
2023-05-30T04:01:03.678Z,9
2023-05-30T04:02:10.835Z,9
2023-05-30T04:03:17.991Z,9
2023-05-30T04:04:25.023Z,9
2023-05-30T04:05:32.109Z,9
2023-05-30T04:06:38.716Z,9
2023-05-30T04:07:45.834Z,9
2023-05-30T04:08:52.921Z,9
2023-05-30T04:10:00.044Z,9
2023-05-30T04:11:07.171Z,9
2023-05-30T04:12:13.724Z,9
2023-05-30T04:13:20.811Z,9.1
2023-05-30T04:14:29.580Z,9.1
2023-05-30T04:15:35.063Z,9.1
2023-05-30T04:16:42.143Z,9.1
2023-05-30T04:17:48.766Z,9.1
2023-05-30T04:18:55.816Z,9.1
2023-05-30T04:20:02.959Z,9.2
2023-05-30T04:21:10.053Z,9.2
2023-05-30T04:22:17.265Z,9.2
2023-05-30T04:23:23.761Z,9.2
2023-05-30T04:24:30.822Z,9.2
2023-05-30T04:25:38.004Z,9.2
2023-05-30T04:26:45.064Z,9.2
2023-05-30T04:27:52.138Z,9.2
2023-05-30T04:28:58.798Z,9.2
2023-05-30T04:30:05.856Z,9.2
2023-05-30T04:31:21.624Z,9.3
2023-05-30T04:32:20.159Z,9.3
2023-05-30T04:33:27.154Z,9.3
2023-05-30T04:34:33.706Z,9.3
2023-05-30T04:35:40.824Z,9.3
2023-05-30T04:36:47.943Z,9.3
2023-05-30T04:37:55.073Z,9.3
2023-05-30T04:39:02.237Z,9.3
2023-05-30T04:41:15.862Z,9.4
2023-05-30T04:42:22.933Z,9.4
2023-05-30T04:43:30.067Z,9.4
2023-05-30T04:44:36.670Z,9.4
2023-05-30T04:45:43.796Z,9.4
2023-05-30T04:46:50.875Z,9.4
2023-05-30T04:47:58.144Z,9.5
2023-05-30T04:49:05.084Z,9.5
2023-05-30T04:50:11.668Z,9.5
2023-05-30T04:51:18.733Z,9.5
2023-05-30T04:52:25.892Z,9.5
2023-05-30T04:53:32.991Z,9.5
2023-05-30T04:54:40.145Z,9.5
2023-05-30T04:55:46.666Z,9.5
2023-05-30T04:56:53.757Z,9.5
2023-05-30T04:58:00.883Z,9.6
2023-05-30T04:59:08.543Z,9.6
2023-05-30T05:00:15.398Z,9.6
2023-05-30T05:01:21.666Z,9.6
2023-05-30T05:02:28.752Z,9.6
2023-05-30T05:03:35.999Z,9.6
2023-05-30T05:04:42.982Z,9.7
2023-05-30T05:06:56.773Z,9.6
2023-05-30T05:08:03.783Z,9.7
2023-05-30T05:09:10.918Z,9.7
2023-05-30T05:10:18.021Z,9.7
2023-05-30T05:11:25.127Z,9.8
2023-05-30T05:12:31.679Z,9.8
2023-05-30T05:13:38.867Z,9.8
2023-05-30T05:14:45.968Z,9.8
2023-05-30T05:15:53.066Z,9.8
2023-05-30T05:17:00.173Z,9.9
2023-05-30T05:18:06.741Z,9.8
2023-05-30T05:19:13.818Z,9.8
2023-05-30T05:20:20.963Z,9.8
2023-05-30T05:21:28.106Z,9.9
2023-05-30T05:22:35.145Z,9.9
2023-05-30T05:23:41.706Z,9.9
2023-05-30T05:24:48.883Z,9.9
2023-05-30T05:25:55.926Z,10
2023-05-30T05:27:03.042Z,10
2023-05-30T05:28:10.156Z,10
2023-05-30T05:29:16.706Z,10
2023-05-30T05:30:23.802Z,10
2023-05-30T05:31:31.036Z,10
2023-05-30T05:32:38.075Z,10
2023-05-30T05:33:45.142Z,10
2023-05-30T05:34:51.694Z,10
2023-05-30T05:35:58.872Z,10.1
2023-05-30T05:37:05.968Z,10.1
2023-05-30T05:38:13.009Z,10.1
2023-05-30T05:39:20.151Z,10.1
2023-05-30T05:40:26.737Z,10.1
2023-05-30T05:41:33.816Z,10.1
2023-05-30T05:42:41.447Z,10.1
2023-05-30T05:44:54.750Z,10.2
2023-05-30T05:46:01.806Z,10.1
2023-05-30T05:47:08.886Z,10.1
2023-05-30T05:48:16.018Z,10.1
2023-05-30T05:49:23.050Z,10.2
2023-05-30T05:50:29.648Z,10.2
2023-05-30T05:51:36.776Z,10.2
2023-05-30T05:52:43.815Z,10.2
2023-05-30T05:53:50.971Z,10.2
2023-05-30T05:54:58.058Z,10.2
2023-05-30T05:56:05.248Z,10.2
2023-05-30T05:57:11.738Z,10.2
2023-05-30T05:58:18.876Z,10.2
2023-05-30T05:59:26.104Z,10.3
2023-05-30T06:00:33.043Z,10.3
2023-05-30T06:01:39.666Z,10.3
2023-05-30T06:02:52.852Z,10.3
2023-05-30T06:03:53.900Z,10.4
2023-05-30T06:05:00.959Z,10.4
2023-05-30T06:06:08.111Z,10.4
2023-05-30T06:07:14.723Z,10.4
2023-05-30T06:08:21.797Z,10.4
2023-05-30T06:09:28.915Z,10.4
2023-05-30T06:10:36.002Z,10.5
2023-05-30T06:11:43.087Z,10.5
2023-05-30T06:12:49.710Z,10.5
2023-05-30T06:13:56.809Z,10.5
2023-05-30T06:15:03.937Z,10.5
2023-05-30T06:16:14.006Z,10.5
2023-05-30T06:17:18.164Z,10.6
2023-05-30T06:18:24.704Z,10.6
2023-05-30T06:19:31.752Z,10.6
2023-05-30T06:20:38.961Z,10.6
2023-05-30T06:21:46.093Z,10.7
2023-05-30T06:22:53.068Z,10.7
2023-05-30T06:23:59.696Z,10.7
2023-05-30T06:25:06.796Z,10.7
2023-05-30T06:26:14.181Z,10.7
2023-05-30T06:27:21.091Z,10.8
2023-05-30T06:28:28.127Z,10.8
2023-05-30T06:29:34.797Z,10.8
2023-05-30T06:30:41.767Z,10.8
2023-05-30T06:31:50.328Z,10.8
2023-05-30T06:32:56.096Z,10.8
2023-05-30T06:35:09.714Z,10.9
2023-05-30T06:36:16.814Z,10.8
2023-05-30T06:37:23.902Z,10.9
2023-05-30T06:38:31.012Z,10.9
2023-05-30T06:39:39.983Z,10.9
2023-05-30T06:40:44.830Z,11
2023-05-30T06:41:51.778Z,11
2023-05-30T06:42:58.959Z,11
2023-05-30T06:44:06.036Z,11
2023-05-30T06:45:13.168Z,11
2023-05-30T06:46:19.747Z,11
2023-05-30T06:48:33.899Z,11
2023-05-30T06:49:41.019Z,11
2023-05-30T06:50:48.150Z,11
2023-05-30T06:51:54.699Z,11
2023-05-30T06:53:01.838Z,11
2023-05-30T06:54:08.941Z,11
2023-05-30T06:55:16.074Z,11
2023-05-30T06:56:23.128Z,11
2023-05-30T06:57:29.749Z,11
2023-05-30T06:58:36.875Z,11
2023-05-30T06:59:43.988Z,11
2023-05-30T07:00:51.105Z,11
2023-05-30T07:01:57.746Z,11
2023-05-30T07:03:04.871Z,11.1
2023-05-30T07:04:11.860Z,11.1
2023-05-30T07:05:18.968Z,11.1
2023-05-30T07:06:26.067Z,11.1
2023-05-30T07:07:32.614Z,11.1
2023-05-30T07:08:39.749Z,11.1
2023-05-30T07:09:46.883Z,11.1
2023-05-30T07:10:54.448Z,11.1
2023-05-30T07:12:01.092Z,11.1
2023-05-30T07:13:07.643Z,11.1
2023-05-30T07:14:14.831Z,11.1
2023-05-30T07:15:21.888Z,11.1
2023-05-30T07:16:29.018Z,11.1
2023-05-30T07:17:36.125Z,11.1
2023-05-30T07:18:44.601Z,11.1
2023-05-30T07:19:49.777Z,11.1
2023-05-30T07:20:57.155Z,11.2
2023-05-30T07:22:04.003Z,11.2
2023-05-30T07:23:11.052Z,11.2
2023-05-30T07:24:17.721Z,11.3
2023-05-30T07:25:24.767Z,11.3
2023-05-30T07:26:31.859Z,11.3
2023-05-30T07:27:38.986Z,11.3
2023-05-30T07:28:46.112Z,11.3
2023-05-30T07:29:52.681Z,11.3
2023-05-30T07:30:59.774Z,11.3
2023-05-30T07:32:06.922Z,11.3
2023-05-30T07:33:14.037Z,11.3
2023-05-30T07:34:21.383Z,11.3
2023-05-30T07:35:27.743Z,11.3
2023-05-30T07:36:34.833Z,11.4
2023-05-30T07:37:41.889Z,11.4
2023-05-30T07:38:49.027Z,11.4
2023-05-30T07:39:56.083Z,11.4
2023-05-30T07:41:02.686Z,11.4
2023-05-30T07:42:09.847Z,11.4
2023-05-30T07:43:16.947Z,11.5
2023-05-30T07:44:24.029Z,11.5
2023-05-30T07:45:31.126Z,11.6
2023-05-30T07:46:37.769Z,11.6
2023-05-30T07:47:44.930Z,11.6
2023-05-30T07:48:51.921Z,11.6
2023-05-30T07:52:12.718Z,11.7
2023-05-30T07:53:19.813Z,11.7
2023-05-30T07:54:26.914Z,11.7
2023-05-30T07:55:34.015Z,11.8
2023-05-30T07:56:41.124Z,11.7
2023-05-30T07:57:47.728Z,11.8
2023-05-30T07:58:54.952Z,11.8
2023-05-30T08:00:01.921Z,11.8
2023-05-30T08:01:09.021Z,11.9
2023-05-30T08:03:22.850Z,11.9
2023-05-30T08:04:30.044Z,11.9
2023-05-30T08:05:36.944Z,11.9
2023-05-30T08:06:44.014Z,11.9
2023-05-30T08:07:51.107Z,11.9
2023-05-30T08:08:57.739Z,11.9
2023-05-30T08:10:05.368Z,11.9
2023-05-30T08:11:11.995Z,12
2023-05-30T08:12:19.134Z,12
2023-05-30T08:13:25.688Z,12
2023-05-30T08:14:32.719Z,12
2023-05-30T08:15:39.920Z,12
2023-05-30T08:16:46.990Z,12.1
2023-05-30T08:17:54.087Z,12.1
2023-05-30T08:19:00.614Z,12.1
2023-05-30T08:20:07.830Z,12.2
2023-05-30T08:21:14.874Z,12.2
2023-05-30T08:22:21.946Z,12.2
2023-05-30T08:23:29.084Z,12.2
2023-05-30T08:24:35.637Z,12.2
2023-05-30T08:25:42.736Z,12.2
2023-05-30T08:26:50.076Z,12.2
2023-05-30T08:27:56.992Z,12.3
2023-05-30T08:29:04.065Z,12.3
2023-05-30T08:30:10.652Z,12.3
2023-05-30T08:31:17.829Z,12.3
2023-05-30T08:32:24.865Z,12.4
2023-05-30T08:33:31.974Z,12.3
2023-05-30T08:34:39.117Z,12.3
2023-05-30T08:35:45.690Z,12.4
2023-05-30T08:36:52.728Z,12.3
2023-05-30T08:37:59.878Z,12.4
2023-05-30T08:39:14.890Z,12.5
2023-05-30T08:40:20.240Z,12.5
2023-05-30T08:41:20.645Z,12.6
2023-05-30T08:42:27.902Z,12.6
2023-05-30T08:43:34.941Z,12.8
2023-05-30T08:44:41.970Z,13.1
2023-05-30T08:45:49.156Z,13.4
2023-05-30T08:46:55.682Z,13.6
2023-05-30T08:48:02.803Z,14
2023-05-30T08:49:09.926Z,14.1
2023-05-30T08:50:16.987Z,14.2
2023-05-30T08:51:24.091Z,14.2
2023-05-30T08:52:30.683Z,14.2
2023-05-30T08:53:37.793Z,14.1
2023-05-30T08:55:52.029Z,14.1
2023-05-30T08:56:59.125Z,14.1
2023-05-30T08:58:05.710Z,14
2023-05-30T08:59:12.778Z,14
2023-05-30T09:00:19.997Z,14
2023-05-30T09:01:27.057Z,14
2023-05-30T09:02:34.174Z,14
2023-05-30T09:03:40.746Z,14
2023-05-30T09:04:47.812Z,14
2023-05-30T09:05:54.927Z,13.9
2023-05-30T09:07:01.994Z,13.9
2023-05-30T09:08:08.606Z,13.8
2023-05-30T09:09:15.749Z,13.8
2023-05-30T09:10:22.821Z,13.8
2023-05-30T09:11:29.928Z,13.8
2023-05-30T09:12:37.012Z,13.8
2023-05-30T09:13:44.164Z,13.8
2023-05-30T09:14:50.718Z,13.8
2023-05-30T09:15:57.839Z,13.9
2023-05-30T09:17:04.969Z,13.9
2023-05-30T09:18:12.127Z,13.9
2023-05-30T09:19:18.622Z,13.9
2023-05-30T09:20:25.850Z,13.9
2023-05-30T09:21:32.882Z,13.9
2023-05-30T09:22:39.938Z,13.9
2023-05-30T09:23:47.049Z,13.9
2023-05-30T09:24:53.650Z,13.9
2023-05-30T09:26:00.722Z,13.8
2023-05-30T09:27:07.837Z,13.8
2023-05-30T09:28:14.966Z,13.9
2023-05-30T09:29:22.016Z,13.9
2023-05-30T09:31:35.823Z,13.8
2023-05-30T09:32:42.882Z,13.9
2023-05-30T09:33:50.005Z,13.9
2023-05-30T09:34:57.108Z,13.9
2023-05-30T09:36:03.627Z,13.9
2023-05-30T09:37:10.727Z,13.9
2023-05-30T09:38:17.813Z,13.8
2023-05-30T09:39:25.004Z,13.9
2023-05-30T09:40:32.077Z,14
2023-05-30T09:41:38.670Z,14
2023-05-30T09:42:45.846Z,14
2023-05-30T09:43:52.943Z,14
2023-05-30T09:45:00.036Z,14
2023-05-30T09:46:07.136Z,14
2023-05-30T09:47:13.622Z,14
2023-05-30T09:48:20.760Z,14
2023-05-30T09:49:27.873Z,14
2023-05-30T09:50:34.978Z,14
2023-05-30T09:51:42.046Z,13.9
2023-05-30T09:52:48.665Z,13.8
2023-05-30T09:53:55.901Z,13.9
2023-05-30T09:55:02.885Z,13.9
2023-05-30T09:56:10.017Z,14
2023-05-30T09:57:17.093Z,14
2023-05-30T09:58:23.636Z,13.9
2023-05-30T09:59:30.754Z,13.9
2023-05-30T10:00:37.919Z,13.9
2023-05-30T10:01:45.038Z,14
2023-05-30T10:02:51.671Z,14
2023-05-30T10:03:58.737Z,14
2023-05-30T10:05:05.866Z,14
2023-05-30T10:06:14.239Z,14.2
2023-05-30T10:07:20.525Z,14.3
2023-05-30T10:08:26.600Z,14.4
2023-05-30T10:09:33.691Z,14.5
2023-05-30T10:10:40.777Z,14.5
2023-05-30T10:11:48.062Z,14.4
2023-05-30T10:12:55.062Z,14.4
2023-05-30T10:14:01.554Z,14.5
2023-05-30T10:15:08.703Z,14.5
2023-05-30T10:16:15.841Z,14.6
2023-05-30T10:17:23.428Z,14.7
2023-05-30T10:18:30.031Z,14.9
2023-05-30T10:19:36.625Z,15
2023-05-30T10:20:43.771Z,15.2
2023-05-30T10:21:52.438Z,15.3
2023-05-30T10:22:57.951Z,15.4
2023-05-30T10:24:05.064Z,15.4
2023-05-30T10:25:11.644Z,15.5
2023-05-30T10:26:18.670Z,15.5
2023-05-30T10:27:25.839Z,15.6
2023-05-30T10:28:32.879Z,15.6
2023-05-30T10:29:40.050Z,15.6
2023-05-30T10:30:46.642Z,15.6
2023-05-30T10:31:53.719Z,15.6
2023-05-30T10:33:00.972Z,15.6
2023-05-30T10:34:07.917Z,15.5
2023-05-30T10:35:15.087Z,15.4
2023-05-30T10:36:21.601Z,15.3
2023-05-30T10:37:28.850Z,15.2
2023-05-30T10:38:35.851Z,15.2
2023-05-30T10:39:42.949Z,15.2
2023-05-30T10:40:50.270Z,15.2
2023-05-30T10:41:57.825Z,15.1
2023-05-30T10:43:03.712Z,15.1
2023-05-30T10:44:10.814Z,15
2023-05-30T10:45:18.006Z,15
2023-05-30T10:46:25.064Z,15.1
2023-05-30T10:47:31.659Z,15
2023-05-30T10:48:38.734Z,15
2023-05-30T10:49:45.850Z,15
2023-05-30T10:50:52.956Z,15
2023-05-30T10:52:00.183Z,15
2023-05-30T10:53:06.703Z,15
2023-05-30T10:54:13.763Z,14.9
2023-05-30T10:55:20.814Z,14.8
2023-05-30T10:56:27.965Z,14.8
2023-05-30T10:57:35.106Z,14.8
2023-05-30T10:59:48.757Z,14.7
2023-05-30T11:00:55.919Z,14.6
2023-05-30T11:02:02.948Z,14.7
2023-05-30T11:03:10.137Z,14.7
2023-05-30T11:04:16.700Z,14.8
2023-05-30T11:05:23.818Z,14.9
2023-05-30T11:06:30.833Z,15
2023-05-30T11:07:38.027Z,15
2023-05-30T11:08:44.531Z,15
2023-05-30T11:09:51.667Z,15.2
2023-05-30T11:10:58.765Z,15.2
2023-05-30T11:12:05.934Z,15.4
2023-05-30T11:13:12.963Z,15.4
2023-05-30T11:14:19.687Z,15.5
2023-05-30T11:15:26.700Z,15.4
2023-05-30T11:16:33.892Z,15.4
2023-05-30T11:17:40.911Z,15.4
2023-05-30T11:18:48.007Z,15.4
2023-05-30T11:19:54.607Z,15.5
2023-05-30T11:21:02.471Z,15.6
2023-05-30T11:22:08.792Z,15.5
2023-05-30T11:23:15.888Z,15.5
2023-05-30T11:24:22.961Z,15.5
2023-05-30T11:25:29.655Z,15.5
2023-05-30T11:26:36.697Z,15.5
2023-05-30T11:27:43.787Z,15.5
2023-05-30T11:28:50.858Z,15.5
2023-05-30T11:29:57.993Z,15.6
2023-05-30T11:31:04.641Z,15.6
2023-05-30T11:32:11.695Z,15.5
2023-05-30T11:33:18.821Z,15.6
2023-05-30T11:34:25.963Z,15.6
2023-05-30T11:35:33.073Z,15.6
2023-05-30T11:36:39.627Z,15.6
2023-05-30T11:37:46.678Z,15.6
2023-05-30T11:38:54.070Z,15.5
2023-05-30T11:40:00.905Z,15.5
2023-05-30T11:41:08.066Z,15.5
2023-05-30T11:42:14.581Z,15.4
2023-05-30T11:43:21.739Z,15.4
2023-05-30T11:44:28.820Z,15.4
2023-05-30T11:45:35.929Z,15.4
2023-05-30T11:46:43.050Z,15.4
2023-05-30T11:47:49.725Z,15.3
2023-05-30T11:48:56.762Z,15.3
2023-05-30T11:50:03.840Z,15.3
2023-05-30T11:51:10.924Z,15.2
2023-05-30T11:52:18.089Z,15.3
2023-05-30T11:53:24.630Z,15.2
2023-05-30T11:54:31.713Z,15.3
2023-05-30T11:55:38.873Z,15.2
2023-05-30T11:56:45.967Z,15.2
2023-05-30T11:57:53.054Z,15.3
2023-05-30T11:58:59.661Z,15.3
2023-05-30T12:00:06.735Z,15.4
2023-05-30T12:01:13.812Z,15.4
2023-05-30T12:02:21.000Z,15.4
2023-05-30T12:03:28.069Z,15.4
2023-05-30T12:04:34.683Z,15.3
2023-05-30T12:05:41.750Z,15.3
2023-05-30T12:06:48.885Z,15.3
2023-05-30T12:07:55.978Z,15.3
2023-05-30T12:09:02.538Z,15.3
2023-05-30T12:10:09.763Z,15.3
2023-05-30T12:11:16.755Z,15.3
2023-05-30T12:12:23.863Z,15.3
2023-05-30T12:13:31.654Z,15.3
2023-05-30T12:14:37.585Z,15.2
2023-05-30T12:15:44.681Z,15.3
2023-05-30T12:16:51.827Z,15.2
2023-05-30T12:17:58.982Z,15.2
2023-05-30T12:19:06.054Z,15.2
2023-05-30T12:20:12.705Z,15.2
2023-05-30T12:21:19.750Z,15.2
2023-05-30T12:22:26.763Z,15.2
2023-05-30T12:23:33.838Z,15.2
2023-05-30T12:24:40.941Z,15.1
2023-05-30T12:25:47.628Z,15.1
2023-05-30T12:26:54.661Z,15.1
2023-05-30T12:28:01.771Z,15.1
2023-05-30T12:29:08.918Z,15.2
2023-05-30T12:30:15.995Z,15.2
2023-05-30T12:31:22.596Z,15.2
2023-05-30T12:32:31.339Z,15.2
2023-05-30T12:33:36.806Z,15.2
2023-05-30T12:34:43.854Z,15.2
2023-05-30T12:35:50.955Z,15.2
2023-05-30T12:36:57.646Z,15.2
2023-05-30T12:38:05.098Z,15.2
2023-05-30T12:39:11.807Z,15.1
2023-05-30T12:40:18.913Z,15.1
2023-05-30T12:41:25.992Z,15
2023-05-30T12:42:32.591Z,15.1
2023-05-30T12:43:39.688Z,15.1
2023-05-30T12:44:46.878Z,15
2023-05-30T12:45:53.913Z,15
2023-05-30T12:47:01.001Z,15
2023-05-30T12:48:07.672Z,14.9
2023-05-30T12:49:14.848Z,14.9
2023-05-30T12:50:21.837Z,14.9
2023-05-30T12:51:28.927Z,14.9
2023-05-30T12:52:36.047Z,14.9
2023-05-30T12:53:42.608Z,14.9
2023-05-30T12:54:49.750Z,14.9
2023-05-30T12:55:56.812Z,14.8
2023-05-30T12:57:03.937Z,14.9
2023-05-30T12:58:10.991Z,14.8
2023-05-30T12:59:17.650Z,14.9
2023-05-30T13:00:24.724Z,14.9
2023-05-30T13:01:31.787Z,14.9
2023-05-30T13:02:39.029Z,14.8
2023-05-30T13:03:46.134Z,14.9
2023-05-30T13:04:52.595Z,14.8
2023-05-30T13:05:59.733Z,14.9
2023-05-30T13:07:06.846Z,14.9
2023-05-30T13:08:13.895Z,14.9
2023-05-30T13:10:27.662Z,14.9
2023-05-30T13:11:34.724Z,14.9
2023-05-30T13:12:41.821Z,14.9
2023-05-30T13:13:49.008Z,14.9
2023-05-30T13:14:55.610Z,14.9
2023-05-30T13:16:02.641Z,14.9
2023-05-30T13:17:09.741Z,14.8
2023-05-30T13:18:17.517Z,14.8
2023-05-30T13:19:25.537Z,14.8
2023-05-30T13:20:31.077Z,14.8
2023-05-30T13:21:37.653Z,14.9
2023-05-30T13:22:44.723Z,14.8
2023-05-30T13:23:51.883Z,14.8
2023-05-30T13:24:59.095Z,14.8
2023-05-30T13:26:05.676Z,14.8
2023-05-30T13:27:12.662Z,14.9
2023-05-30T13:28:20.270Z,14.8
2023-05-30T13:29:26.866Z,14.8
2023-05-30T13:30:33.992Z,14.8
2023-05-30T13:31:40.538Z,14.8
2023-05-30T13:32:47.781Z,14.8
2023-05-30T13:33:54.814Z,14.8
2023-05-30T13:35:01.850Z,14.8
2023-05-30T13:36:08.990Z,14.8
2023-05-30T13:37:15.599Z,14.8
2023-05-30T13:38:22.640Z,14.8
2023-05-30T13:39:29.758Z,14.8
2023-05-30T13:40:36.894Z,14.8
2023-05-30T13:41:43.963Z,14.8
2023-05-30T13:42:50.534Z,14.8
2023-05-30T13:43:57.687Z,14.7
2023-05-30T13:45:06.070Z,14.7
2023-05-30T13:46:14.336Z,14.7
2023-05-30T13:47:19.153Z,14.7
2023-05-30T13:48:25.589Z,14.7
2023-05-30T13:49:32.641Z,14.7
2023-05-30T13:50:39.806Z,14.7
2023-05-30T13:51:46.901Z,14.7
2023-05-30T13:52:53.966Z,14.7
2023-05-30T13:54:02.623Z,14.7
2023-05-30T13:55:07.752Z,14.7
2023-05-30T13:56:14.781Z,14.7
2023-05-30T13:57:21.852Z,14.7
2023-05-30T13:58:29.057Z,14.7
2023-05-30T13:59:35.615Z,14.7
2023-05-30T14:00:42.686Z,14.7
2023-05-30T14:01:49.853Z,14.7
2023-05-30T14:02:56.964Z,14.7
2023-05-30T14:04:04.076Z,14.7
2023-05-30T14:05:12.767Z,14.7
2023-05-30T14:06:17.749Z,14.7
2023-05-30T14:07:24.842Z,14.7
2023-05-30T14:08:31.953Z,14.7
2023-05-30T14:09:39.052Z,14.7
2023-05-30T14:10:47.336Z,14.7
2023-05-30T14:11:52.714Z,14.7
2023-05-30T14:14:06.960Z,14.7
2023-05-30T14:15:13.996Z,14.7
2023-05-30T14:16:20.614Z,14.7
2023-05-30T14:17:27.740Z,14.6
2023-05-30T14:18:34.866Z,14.7
2023-05-30T14:19:41.899Z,14.7
2023-05-30T14:20:48.656Z,14.7
2023-05-30T14:21:55.629Z,14.7
2023-05-30T14:23:02.718Z,14.7
2023-05-30T14:24:09.825Z,14.7
2023-05-30T14:25:17.057Z,14.7
2023-05-30T14:26:23.502Z,14.6
2023-05-30T14:27:30.617Z,14.6
2023-05-30T14:28:37.685Z,14.6
2023-05-30T14:29:44.823Z,14.6
2023-05-30T14:30:51.995Z,14.6
2023-05-30T14:31:59.257Z,14.6
2023-05-30T14:33:05.802Z,14.5
2023-05-30T14:34:12.755Z,14.5
2023-05-30T14:35:19.900Z,14.6
2023-05-30T14:36:27.024Z,14.6
2023-05-30T14:37:33.572Z,14.5
2023-05-30T14:38:40.598Z,14.5
2023-05-30T14:39:47.700Z,14.6
2023-05-30T14:40:54.887Z,14.6
2023-05-30T14:42:01.952Z,14.6
2023-05-30T14:43:08.539Z,14.5
2023-05-30T14:44:15.756Z,14.5
2023-05-30T14:45:22.734Z,14.5
2023-05-30T14:46:29.873Z,14.4
2023-05-30T14:47:36.992Z,14.4
2023-05-30T14:48:43.600Z,14.4
2023-05-30T14:49:50.651Z,14.4
2023-05-30T14:50:57.884Z,14.4
2023-05-30T14:52:04.888Z,14.4
2023-05-30T14:53:11.920Z,14.4
2023-05-30T14:54:18.570Z,14.4
2023-05-30T14:55:25.733Z,14.4
2023-05-30T14:56:32.757Z,14.4
2023-05-30T14:57:39.934Z,14.5
2023-05-30T14:58:46.990Z,14.5
2023-05-30T14:59:53.543Z,14.5
2023-05-30T15:01:12.704Z,14.4
2023-05-30T15:02:07.816Z,14.5
2023-05-30T15:03:15.000Z,14.5
2023-05-30T15:04:22.031Z,14.5
2023-05-30T15:05:28.591Z,14.5
2023-05-30T15:06:35.642Z,14.5
2023-05-30T15:07:42.764Z,14.5
2023-05-30T15:08:49.891Z,14.4
2023-05-30T15:09:56.478Z,14.5
2023-05-30T15:11:03.916Z,14.5
2023-05-30T15:12:10.646Z,14.5
2023-05-30T15:13:17.816Z,14.5
2023-05-30T15:14:24.890Z,14.5
2023-05-30T15:15:31.498Z,14.5
2023-05-30T15:16:40.384Z,14.6
2023-05-30T15:17:45.723Z,14.5
2023-05-30T15:18:52.810Z,14.6
2023-05-30T15:19:59.992Z,14.6
2023-05-30T15:21:06.476Z,14.5
2023-05-30T15:22:13.585Z,14.5
2023-05-30T15:23:20.663Z,14.6
2023-05-30T15:24:27.810Z,14.6
2023-05-30T15:25:34.950Z,14.6
2023-05-30T15:26:41.456Z,14.5
2023-05-30T15:27:48.592Z,14.5
2023-05-30T15:28:55.724Z,14.5
2023-05-30T15:30:02.770Z,14.5
2023-05-30T15:31:10.014Z,14.6